Time;durP1;ratioP1;P1;durP2;ratioP2;P2;SDS_P1;SDS_P2;PMS_P1;PMS_P2;Temp;Humidity;BMP_temperature;BMP_pressure;BME280_temperature;BME280_humidity;BME280_pressure;Samples;Min_cycle;Max_cycle;Signal;HPM_P1;HPM_P2
2022/07/31 00:00:00;;;;;;;949.60;885.92;;;;;;;21.81;50.01;101185.91;690761;28;1048;-66
2022/07/31 00:00:22;;;;;;;960.60;896.55;;;;;;;21.83;50.07;101193.91;688277;28;67441;-66
2022/07/31 00:00:44;;;;;;;963.38;899.10;;;;;;;21.80;50.20;101188.91;690419;28;1390;-66
2022/07/31 00:01:07;;;;;;;953.17;889.42;;;;;;;21.81;49.82;101198.81;689566;28;46355;-67
2022/07/31 00:01:29;;;;;;;960.40;896.40;;;;;;;21.78;50.27;101191.88;687230;28;68569;-67
2022/07/31 00:01:53;;;;;;;976.55;911.67;;;;;;;21.77;50.17;101195.69;687924;28;69425;-67
2022/07/31 00:02:15;;;;;;;946.63;883.03;;;;;;;21.76;50.04;101192.13;687191;28;91980;-67
2022/07/31 00:02:36;;;;;;;945.45;881.95;;;;;;;21.72;50.38;101192.84;691128;28;22115;-66
2022/07/31 00:02:58;;;;;;;946.10;882.53;;;;;;;21.75;50.51;101200.59;692104;28;23520;-67
2022/07/31 00:03:21;;;;;;;951.15;887.47;;;;;;;21.73;50.69;101197.28;690784;28;69378;-67
2022/07/31 00:03:42;;;;;;;950.92;887.28;;;;;;;21.74;50.53;101197.03;691615;28;47246;-67
2022/07/31 00:04:04;;;;;;;959.35;895.38;;;;;;;21.75;50.62;101201.44;691957;28;23296;-67
2022/07/31 00:04:27;;;;;;;955.17;891.45;;;;;;;21.75;50.59;101195.13;690902;28;46121;-68
2022/07/31 00:04:49;;;;;;;956.60;892.70;;;;;;;21.71;50.55;101191.19;687804;28;67279;-67
2022/07/31 00:05:10;;;;;;;951.08;887.22;;;;;;;21.75;50.65;101195.94;689481;28;44834;-67
2022/07/31 00:05:32;;;;;;;942.33;879.03;;;;;;;21.80;50.33;101197.16;689705;28;21544;-67
2022/07/31 00:05:54;;;;;;;946.85;883.35;;;;;;;21.82;50.44;101200.47;688903;28;44367;-65
2022/07/31 00:06:17;;;;;;;953.75;890.08;;;;;;;21.83;50.32;101196.66;688702;28;45357;-65
2022/07/31 00:06:40;;;;;;;954.97;891.15;;;;;;;21.80;50.35;101194.41;687584;28;50804;-67
2022/07/31 00:07:01;;;;;;;954.95;891.08;;;;;;;21.80;50.51;101197.97;687307;28;67445;-68
2022/07/31 00:07:23;;;;;;;949.00;885.30;;;;;;;21.77;50.39;101188.31;689740;28;21564;-67
2022/07/31 00:07:44;;;;;;;946.15;882.67;;;;;;;21.80;50.18;101197.97;688966;28;46279;-65
2022/07/31 00:08:06;;;;;;;943.17;879.78;;;;;;;21.81;50.21;101201.56;689937;28;23515;-67
2022/07/31 00:08:27;;;;;;;945.45;882.08;;;;;;;21.78;50.34;101194.63;689204;28;45277;-67
2022/07/31 00:08:49;;;;;;;941.72;878.33;;;;;;;21.77;50.27;101192.94;690771;28;21507;-66
2022/07/31 00:09:11;;;;;;;959.97;895.97;;;;;;;21.73;50.19;101194.53;688889;28;46377;-66
2022/07/31 00:09:33;;;;;;;953.15;889.53;;;;;;;21.74;50.28;101191.53;689086;28;45449;-66
2022/07/31 00:09:54;;;;;;;936.15;873.08;;;;;;;21.75;50.16;101198.69;688932;28;44217;-66
2022/07/31 00:10:16;;;;;;;951.55;887.83;;;;;;;21.76;50.24;101196.78;689649;28;22368;-67
2022/07/31 00:10:38;;;;;;;959.45;895.55;;;;;;;21.75;50.19;101195.94;689060;28;46138;-66
2022/07/31 00:11:00;;;;;;;952.30;888.60;;;;;;;21.77;50.31;101201.19;688745;28;46324;-67
2022/07/31 00:11:21;;;;;;;946.25;882.80;;;;;;;21.76;49.97;101200.38;689791;28;23496;-66
2022/07/31 00:11:42;;;;;;;953.13;889.53;;;;;;;21.76;50.18;101200.38;688376;28;46391;-66
2022/07/31 00:12:04;;;;;;;946.28;882.88;;;;;;;21.75;50.09;101195.13;690075;28;21519;-66
2022/07/31 00:12:26;;;;;;;941.50;878.30;;;;;;;21.76;50.19;101196.78;689196;28;46684;-67
2022/07/31 00:12:50;;;;;;;944.53;880.95;;;;;;;21.69;49.71;101196.06;688844;28;45884;-67
2022/07/31 00:13:12;;;;;;;940.47;876.90;;;;;;;21.68;50.27;101195.25;687236;28;94014;-66
2022/07/31 00:13:33;;;;;;;934.83;871.55;;;;;;;21.72;50.05;101199.19;689849;28;21490;-67
2022/07/31 00:13:55;;;;;;;949.88;886.15;;;;;;;21.69;50.13;101194.19;688880;28;46204;-67
2022/07/31 00:14:16;;;;;;;945.28;881.67;;;;;;;21.66;50.22;101196.56;688611;28;45318;-66
2022/07/31 00:14:37;;;;;;;957.30;893.22;;;;;;;21.68;50.22;101195.25;690111;28;1577;-67
2022/07/31 00:14:59;;;;;;;958.63;894.63;;;;;;;21.68;50.17;101199.91;689755;28;22375;-66
2022/07/31 00:15:22;;;;;;;949.13;885.47;;;;;;;21.61;50.32;101189.03;688788;28;45213;-66
2022/07/31 00:15:43;;;;;;;938.92;875.72;;;;;;;21.63;50.14;101195.13;688648;28;46312;-66
2022/07/31 00:16:04;;;;;;;946.10;882.67;;;;;;;21.65;50.39;101203.97;688605;28;44389;-66
2022/07/31 00:16:25;;;;;;;945.53;882.03;;;;;;;21.65;50.46;101203.97;688396;28;45463;-67
2022/07/31 00:16:47;;;;;;;952.03;888.33;;;;;;;21.64;50.33;101194.03;691590;28;21098;-67
2022/07/31 00:17:09;;;;;;;952.90;889.00;;;;;;;21.69;50.26;101201.56;690459;28;45272;-67
2022/07/31 00:17:30;;;;;;;951.35;887.50;;;;;;;21.70;50.27;101198.59;692207;28;23435;-66
2022/07/31 00:17:51;;;;;;;939.65;876.35;;;;;;;21.68;50.25;101198.00;692841;28;21352;-66
2022/07/31 00:18:13;;;;;;;948.33;884.70;;;;;;;21.69;50.10;101201.56;691751;28;45252;-66
2022/07/31 00:18:36;;;;;;;955.50;891.60;;;;;;;21.69;50.28;101193.31;691147;28;45208;-67
2022/07/31 00:18:57;;;;;;;949.25;885.60;;;;;;;21.70;50.25;101200.50;688745;28;46318;-66
2022/07/31 00:19:18;;;;;;;954.63;890.72;;;;;;;21.65;50.14;101197.66;690746;28;980;-66
2022/07/31 00:19:41;;;;;;;948.22;884.58;;;;;;;21.63;50.42;101199.78;689743;28;23125;-66
2022/07/31 00:20:03;;;;;;;954.40;890.60;;;;;;;21.64;50.41;101202.28;688205;28;69559;-67
2022/07/31 00:20:25;;;;;;;948.35;884.67;;;;;;;21.63;50.34;101199.78;688541;28;66804;-66
2022/07/31 00:20:48;;;;;;;952.47;888.63;;;;;;;21.60;50.41;101199.19;690134;28;46236;-66
2022/07/31 00:21:09;;;;;;;959.28;895.20;;;;;;;21.55;50.53;101193.59;690164;28;14785;-66
2022/07/31 00:21:32;;;;;;;962.97;898.85;;;;;;;21.54;50.66;101196.56;688821;28;20903;-66
2022/07/31 00:21:53;;;;;;;967.75;903.35;;;;;;;21.50;50.61;101189.88;688758;28;46249;-66
2022/07/31 00:22:14;;;;;;;959.72;895.58;;;;;;;21.51;50.72;101197.06;689380;28;47342;-66
2022/07/31 00:22:36;;;;;;;957.03;892.92;;;;;;;21.48;50.85;101194.75;689698;28;21539;-66
2022/07/31 00:22:57;;;;;;;954.45;890.58;;;;;;;21.48;50.71;101194.75;689788;28;22493;-66
2022/07/31 00:23:19;;;;;;;948.80;885.30;;;;;;;21.46;50.84;101192.25;688693;28;45017;-66
2022/07/31 00:23:41;;;;;;;954.78;890.97;;;;;;;21.45;50.60;101189.72;689891;28;44364;-67
2022/07/31 00:24:02;;;;;;;951.28;887.47;;;;;;;21.46;50.83;101197.72;689891;28;23504;-66
2022/07/31 00:24:24;;;;;;;942.95;879.65;;;;;;;21.44;50.91;101194.38;689093;28;44101;-67
2022/07/31 00:24:46;;;;;;;935.05;871.90;;;;;;;21.43;51.03;101193.53;689772;28;22552;-67
2022/07/31 00:25:08;;;;;;;932.95;869.95;;;;;;;21.39;51.19;101192.38;688703;28;45221;-67
2022/07/31 00:25:30;;;;;;;951.42;887.75;;;;;;;21.40;51.03;101191.28;688281;28;69391;-67
2022/07/31 00:25:52;;;;;;;953.78;889.88;;;;;;;21.40;51.06;101190.44;689204;28;26236;-67
2022/07/31 00:26:13;;;;;;;943.28;879.95;;;;;;;21.41;51.10;101194.84;689677;28;22410;-67
2022/07/31 00:26:36;;;;;;;946.88;883.42;;;;;;;21.39;51.20;101194.25;689366;28;21530;-67
2022/07/31 00:26:57;;;;;;;946.55;883.08;;;;;;;21.37;51.04;101189.00;690040;28;69349;-67
2022/07/31 00:27:19;;;;;;;953.13;889.33;;;;;;;21.36;50.99;101190.09;691154;28;45252;-67
2022/07/31 00:27:41;;;;;;;946.80;883.40;;;;;;;21.34;51.06;101188.66;691388;28;48202;-67
2022/07/31 00:28:06;;;;;;;945.47;882.10;;;;;;;21.32;51.21;101180.63;691304;28;44191;-66
2022/07/31 00:28:28;;;;;;;945.70;882.22;;;;;;;21.32;51.18;101188.06;689217;28;114373;-67
2022/07/31 00:28:49;;;;;;;947.42;883.88;;;;;;;21.29;51.19;101180.28;691290;28;23056;-67
2022/07/31 00:29:10;;;;;;;962.40;898.25;;;;;;;21.28;51.40;101173.13;689939;28;21549;-66
2022/07/31 00:29:32;;;;;;;967.40;903.17;;;;;;;21.28;51.28;101175.84;687736;28;21500;-66
2022/07/31 00:29:53;;;;;;;950.65;886.92;;;;;;;21.28;51.19;101187.69;685348;28;46331;-66
2022/07/31 00:30:16;;;;;;;954.75;891.05;;;;;;;21.27;51.27;101179.66;686811;28;44374;-66
2022/07/31 00:30:37;;;;;;;950.15;886.65;;;;;;;21.26;51.32;101178.03;686310;28;45205;-66
2022/07/31 00:30:58;;;;;;;951.53;887.85;;;;;;;21.27;51.37;101183.28;686581;28;22625;-66
2022/07/31 00:31:20;;;;;;;945.30;881.88;;;;;;;21.27;51.45;101182.41;686935;28;21525;-65
2022/07/31 00:31:42;;;;;;;959.40;895.47;;;;;;;21.26;51.22;101184.34;687621;28;71866;-66
2022/07/31 00:32:03;;;;;;;955.30;891.50;;;;;;;21.23;51.32;101180.16;690727;28;46317;-66
2022/07/31 00:32:25;;;;;;;962.13;898.17;;;;;;;21.21;51.56;101181.47;688921;28;46235;-66
2022/07/31 00:32:47;;;;;;;956.67;892.75;;;;;;;21.22;51.65;101183.13;689888;28;22626;-65
2022/07/31 00:33:08;;;;;;;944.33;880.90;;;;;;;21.22;51.51;101185.88;689178;28;46220;-65
2022/07/31 00:33:41;;;;;;;950.70;887.08;;;;;;;21.18;51.65;101171.78;687346;28;98492;-65
2022/07/31 00:34:04;;;;;;;954.88;891.05;;;;;;;21.19;51.73;101178.97;687535;28;70219;-65
2022/07/31 00:34:27;;;;;;;963.78;899.67;;;;;;;21.18;51.90;101185.53;687341;28;92252;-65
2022/07/31 00:34:48;;;;;;;963.40;899.25;;;;;;;21.17;51.85;101181.09;689072;28;44367;-65
2022/07/31 00:35:09;;;;;;;953.53;889.75;;;;;;;21.18;51.74;101187.44;689609;28;21660;-66
2022/07/31 00:35:31;;;;;;;946.85;883.35;;;;;;;21.13;51.73;101173.56;689726;28;21507;-66
2022/07/31 00:35:53;;;;;;;952.33;888.55;;;;;;;21.18;51.76;101181.94;686019;28;46312;-66
2022/07/31 00:36:14;;;;;;;953.63;889.90;;;;;;;21.18;51.76;101181.94;683469;28;44347;-66
2022/07/31 00:36:35;;;;;;;939.13;875.92;;;;;;;21.15;51.86;101182.44;680822;28;23612;-66
2022/07/31 00:36:56;;;;;;;953.20;889.38;;;;;;;21.17;51.83;101183.00;678747;29;23500;-66
2022/07/31 00:37:19;;;;;;;959.63;895.53;;;;;;;21.11;51.78;101173.81;682834;29;21594;-66
2022/07/31 00:37:42;;;;;;;951.08;887.45;;;;;;;21.13;51.84;101182.66;680380;28;68058;-67
2022/07/31 00:38:03;;;;;;;945.70;882.13;;;;;;;21.13;51.96;101174.41;680964;28;45240;-67
2022/07/31 00:38:24;;;;;;;957.38;893.38;;;;;;;21.12;51.85;101180.97;684210;28;47362;-66
2022/07/31 00:38:46;;;;;;;948.65;884.97;;;;;;;21.10;51.77;101171.28;684913;28;22400;-66
2022/07/31 00:39:11;;;;;;;953.05;889.22;;;;;;;21.06;51.75;101173.69;684862;28;69302;-66
2022/07/31 00:39:32;;;;;;;959.78;895.67;;;;;;;21.05;51.88;101172.84;684127;28;67561;-66
2022/07/31 00:39:53;;;;;;;967.67;903.38;;;;;;;21.09;51.97;101175.13;682665;28;44372;-66
2022/07/31 00:40:17;;;;;;;945.78;882.30;;;;;;;21.05;52.05;101178.34;684598;28;46450;-66
2022/07/31 00:40:45;;;;;;;951.35;887.65;;;;;;;21.06;52.01;101179.19;682816;28;69279;-66
2022/07/31 00:41:06;;;;;;;951.38;887.67;;;;;;;21.05;51.92;101170.09;680382;28;137372;-66
2022/07/31 00:41:38;;;;;;;952.85;889.13;;;;;;;21.05;52.28;101175.59;682406;28;21606;-66
2022/07/31 00:42:00;;;;;;;953.27;889.53;;;;;;;21.04;52.12;101173.91;682127;28;136023;-67
2022/07/31 00:42:23;;;;;;;945.72;882.25;;;;;;;21.06;52.19;101173.69;681852;28;69323;-66
2022/07/31 00:42:44;;;;;;;929.90;866.97;;;;;;;21.07;52.20;101172.63;685214;28;69427;-66
2022/07/31 00:43:06;;;;;;;954.42;890.55;;;;;;;21.05;52.29;101170.09;686994;28;22383;-67
2022/07/31 00:43:28;;;;;;;954.70;890.88;;;;;;;21.10;52.44;101174.91;687085;28;21673;-66
2022/07/31 00:43:50;;;;;;;957.90;893.90;;;;;;;21.12;51.85;101178.22;684679;28;69497;-67
2022/07/31 00:44:12;;;;;;;972.42;907.83;;;;;;;21.13;52.04;101171.69;686467;28;22221;-67
2022/07/31 00:44:38;;;;;;;963.70;899.47;;;;;;;21.10;51.95;101166.66;685389;28;69223;-67
2022/07/31 00:45:00;;;;;;;950.72;886.97;;;;;;;21.13;51.97;101174.41;682722;28;136118;-67
2022/07/31 00:45:23;;;;;;;941.47;877.97;;;;;;;21.13;51.93;101168.94;686227;28;44131;-66
2022/07/31 00:45:44;;;;;;;935.15;871.95;;;;;;;21.13;51.99;101173.56;685790;28;45240;-66
2022/07/31 00:46:06;;;;;;;953.23;889.43;;;;;;;21.12;51.96;101172.75;683570;28;69577;-66
2022/07/31 00:46:28;;;;;;;947.72;884.13;;;;;;;21.12;52.00;101170.00;687043;28;5506;-66
2022/07/31 00:46:50;;;;;;;934.50;871.38;;;;;;;21.11;52.02;101172.97;686818;28;22375;-66
2022/07/31 00:47:11;;;;;;;953.70;889.92;;;;;;;21.09;51.98;101173.22;686880;28;46386;-66
2022/07/31 00:47:32;;;;;;;950.55;886.95;;;;;;;21.11;52.13;101175.72;685379;28;45015;-66
2022/07/31 00:47:54;;;;;;;951.78;888.08;;;;;;;21.11;52.09;101173.81;689133;28;22350;-66
2022/07/31 00:48:16;;;;;;;936.00;872.85;;;;;;;21.10;52.05;101165.78;690390;28;45416;-66
2022/07/31 00:48:38;;;;;;;931.55;868.58;;;;;;;21.10;52.16;101172.16;690024;28;46332;-66
2022/07/31 00:49:01;;;;;;;937.40;874.17;;;;;;;21.06;52.36;101163.56;691988;28;1501;-66
2022/07/31 00:49:23;;;;;;;948.60;885.10;;;;;;;21.06;52.31;101165.44;687037;28;70092;-66
2022/07/31 00:49:45;;;;;;;950.20;886.58;;;;;;;21.04;52.22;101171.16;687075;28;22399;-66
2022/07/31 00:50:08;;;;;;;947.78;884.28;;;;;;;21.05;52.27;101166.53;684930;28;68357;-66
2022/07/31 00:50:29;;;;;;;946.15;882.72;;;;;;;21.02;52.29;101172.50;685969;28;46320;-67
2022/07/31 00:50:51;;;;;;;951.45;887.70;;;;;;;21.01;52.54;101173.56;682651;28;47466;-66
2022/07/31 00:51:13;;;;;;;944.90;881.40;;;;;;;21.01;52.40;101170.81;682429;28;23432;-66
2022/07/31 00:51:36;;;;;;;934.97;871.90;;;;;;;20.98;52.46;101165.78;682024;28;91892;-67
2022/07/31 00:51:57;;;;;;;939.90;876.60;;;;;;;21.00;52.58;101166.38;680510;29;45244;-66
2022/07/31 00:52:19;;;;;;;937.95;874.63;;;;;;;20.99;52.37;101170.22;681620;29;22189;-66
2022/07/31 00:52:40;;;;;;;953.17;889.33;;;;;;;20.99;52.71;101168.31;679036;29;47283;-66
2022/07/31 00:53:03;;;;;;;947.75;884.13;;;;;;;21.00;52.35;101166.38;681574;28;44421;-67
2022/07/31 00:53:24;;;;;;;950.20;886.70;;;;;;;20.99;52.67;101171.06;683367;28;46180;-66
2022/07/31 00:53:45;;;;;;;954.90;891.20;;;;;;;20.97;52.59;101170.47;683018;28;22153;-66
2022/07/31 00:54:07;;;;;;;937.13;873.97;;;;;;;20.97;52.33;101170.47;683195;28;46355;-66
2022/07/31 00:54:30;;;;;;;940.42;877.20;;;;;;;20.97;52.71;101175.09;681369;28;46283;-66
2022/07/31 00:54:51;;;;;;;947.08;883.58;;;;;;;20.95;52.68;101167.09;683043;28;45237;-66
2022/07/31 00:55:12;;;;;;;959.55;895.47;;;;;;;20.96;52.58;101167.94;683560;28;23485;-67
2022/07/31 00:55:33;;;;;;;949.07;885.43;;;;;;;20.95;52.57;101167.09;682495;28;21448;-67
2022/07/31 00:55:56;;;;;;;937.10;873.92;;;;;;;20.95;52.70;101171.75;683438;28;45273;-67
2022/07/31 00:56:18;;;;;;;942.75;879.35;;;;;;;20.88;52.54;101158.97;686303;28;69429;-67
2022/07/31 00:56:39;;;;;;;943.58;880.22;;;;;;;20.86;52.89;101155.63;685890;28;21407;-66
2022/07/31 00:57:01;;;;;;;956.67;892.70;;;;;;;20.89;52.77;101159.81;686315;28;22383;-66
2022/07/31 00:57:23;;;;;;;948.17;884.45;;;;;;;20.91;52.84;101167.78;686215;28;46762;-67
2022/07/31 00:57:44;;;;;;;935.20;872.13;;;;;;;20.90;52.71;101166.16;687850;28;46475;-66
2022/07/31 00:58:06;;;;;;;958.53;894.53;;;;;;;20.90;52.69;101166.97;688396;28;45234;-67
2022/07/31 00:58:27;;;;;;;960.20;896.13;;;;;;;20.87;52.69;101168.28;687751;28;6896;-65
2022/07/31 00:58:48;;;;;;;950.03;886.35;;;;;;;20.87;52.81;101167.44;690013;28;9407;-66
2022/07/31 00:59:11;;;;;;;935.47;872.35;;;;;;;20.88;52.80;101163.63;685928;28;44343;-66
2022/07/31 00:59:35;;;;;;;946.78;883.30;;;;;;;20.88;52.63;101169.13;685837;28;46192;-66
2022/07/31 00:59:57;;;;;;;952.25;888.55;;;;;;;20.88;52.97;101171.88;680911;28;115099;-65
2022/07/31 01:00:18;;;;;;;950.13;886.50;;;;;;;20.87;52.83;101165.53;684693;28;21334;-66
2022/07/31 01:00:39;;;;;;;946.42;882.88;;;;;;;20.86;53.06;101163.88;686953;28;22333;-65
2022/07/31 01:01:01;;;;;;;948.75;885.10;;;;;;;20.85;52.94;101164.09;685140;28;23558;-65
2022/07/31 01:01:22;;;;;;;948.75;885.22;;;;;;;20.85;52.94;101166.84;682663;28;47299;-66
2022/07/31 01:01:44;;;;;;;950.37;886.77;;;;;;;20.86;53.09;101168.50;684215;28;44379;-66
2022/07/31 01:02:07;;;;;;;947.20;883.70;;;;;;;20.87;52.96;101159.22;686633;28;46319;-66
2022/07/31 01:02:30;;;;;;;949.20;885.70;;;;;;;20.85;52.81;101167.69;685425;28;69440;-66
2022/07/31 01:02:51;;;;;;;958.10;894.20;;;;;;;20.81;52.74;101160.16;685202;28;67596;-66
2022/07/31 01:03:13;;;;;;;955.78;891.90;;;;;;;20.82;52.95;101165.41;687161;28;21256;-66
2022/07/31 01:03:34;;;;;;;944.95;881.42;;;;;;;20.81;52.79;101163.72;686695;28;46429;-66
2022/07/31 01:03:57;;;;;;;960.95;896.92;;;;;;;20.80;52.98;101166.69;686496;28;23423;-66
2022/07/31 01:04:19;;;;;;;954.65;890.95;;;;;;;20.79;53.16;101171.38;685097;28;67339;-66
2022/07/31 01:04:40;;;;;;;949.63;886.08;;;;;;;20.76;53.01;101160.84;683262;28;44374;-66
2022/07/31 01:05:02;;;;;;;954.20;890.38;;;;;;;20.78;53.12;101160.63;683874;28;24182;-66
2022/07/31 01:05:25;;;;;;;950.78;887.15;;;;;;;20.77;53.01;101162.53;684134;28;46206;-66
2022/07/31 01:05:46;;;;;;;943.88;880.45;;;;;;;20.75;52.98;101158.34;685954;28;68224;-65
2022/07/31 01:06:08;;;;;;;970.83;906.40;;;;;;;20.74;53.15;101160.25;686958;28;21213;-65
2022/07/31 01:06:30;;;;;;;959.10;895.15;;;;;;;20.70;52.94;101157.16;686111;28;46580;-65
2022/07/31 01:06:51;;;;;;;944.60;881.05;;;;;;;20.70;53.04;101159.91;685755;28;46304;-66
2022/07/31 01:07:12;;;;;;;960.88;896.78;;;;;;;20.70;53.20;101159.03;686615;28;22315;-66
2022/07/31 01:07:34;;;;;;;960.63;896.67;;;;;;;20.68;53.23;101161.19;684491;28;21522;-67
2022/07/31 01:07:55;;;;;;;954.65;890.95;;;;;;;20.64;53.38;101165.44;683885;28;46322;-66
2022/07/31 01:08:17;;;;;;;953.50;889.78;;;;;;;20.61;53.58;101155.78;684910;28;21534;-65
2022/07/31 01:08:39;;;;;;;956.45;892.78;;;;;;;20.61;53.63;101152.19;683477;28;46145;-66
2022/07/31 01:09:00;;;;;;;946.65;883.13;;;;;;;20.60;53.51;101158.75;683401;28;44192;-65
2022/07/31 01:09:21;;;;;;;952.67;888.95;;;;;;;20.60;53.67;101158.75;684832;28;21536;-65
2022/07/31 01:09:44;;;;;;;945.08;881.72;;;;;;;20.57;53.78;101162.78;686447;28;22438;-65
2022/07/31 01:10:08;;;;;;;937.88;874.72;;;;;;;20.55;53.70;101155.84;685513;28;67500;-65
2022/07/31 01:10:39;;;;;;;940.97;877.70;;;;;;;20.57;53.54;101164.72;684437;28;115025;-66
2022/07/31 01:11:04;;;;;;;955.45;891.58;;;;;;;20.56;53.67;101157.53;684495;28;137736;-66
2022/07/31 01:11:38;;;;;;;940.00;876.67;;;;;;;20.56;53.99;101165.78;684298;28;137573;-66
2022/07/31 01:12:02;;;;;;;969.80;905.50;;;;;;;20.55;53.81;101162.19;683832;28;136350;-66
2022/07/31 01:12:29;;;;;;;957.80;893.83;;;;;;;20.57;53.76;101160.06;685560;28;92254;-66
2022/07/31 01:12:54;;;;;;;936.58;873.38;;;;;;;20.55;53.67;101159.47;680965;28;160509;-66
2022/07/31 01:13:25;;;;;;;940.80;877.50;;;;;;;20.56;53.70;101160.28;683563;28;114995;-66
2022/07/31 01:13:49;;;;;;;945.47;882.00;;;;;;;20.56;53.81;101157.53;683962;28;137372;-66
2022/07/31 01:14:11;;;;;;;955.90;892.08;;;;;;;20.58;53.78;101163.63;687706;28;69259;-66
2022/07/31 01:14:36;;;;;;;944.78;881.30;;;;;;;20.54;53.84;101157.78;688683;28;47275;-66
2022/07/31 01:15:01;;;;;;;947.55;883.88;;;;;;;20.56;53.84;101161.09;686291;28;115185;-66
2022/07/31 01:15:23;;;;;;;951.47;887.63;;;;;;;20.57;53.69;101165.53;685889;28;137803;-66
2022/07/31 01:15:45;;;;;;;944.95;881.40;;;;;;;20.57;53.92;101162.78;691099;28;46319;-66
2022/07/31 01:16:09;;;;;;;949.00;885.33;;;;;;;20.57;53.90;101156.47;692024;28;45273;-66
2022/07/31 01:16:34;;;;;;;952.22;888.47;;;;;;;20.57;53.81;101151.00;689021;28;93404;-66
2022/07/31 01:16:56;;;;;;;961.67;897.65;;;;;;;20.58;53.69;101164.47;687585;28;90999;-66
2022/07/31 01:17:18;;;;;;;960.00;895.92;;;;;;;20.58;53.86;101158.13;689127;28;69367;-66
2022/07/31 01:17:40;;;;;;;943.42;880.03;;;;;;;20.53;53.84;101154.19;689978;28;44352;-66
2022/07/31 01:18:04;;;;;;;944.28;880.85;;;;;;;20.59;54.08;101157.91;689013;28;47987;-66
2022/07/31 01:18:26;;;;;;;954.47;890.70;;;;;;;20.58;53.72;101159.00;685810;28;91925;-66
2022/07/31 01:18:48;;;;;;;960.22;896.25;;;;;;;20.56;53.82;101150.13;685433;28;46380;-66
2022/07/31 01:19:15;;;;;;;962.85;898.75;;;;;;;20.56;53.89;101152.88;683501;28;45230;-66
2022/07/31 01:19:40;;;;;;;958.33;894.22;;;;;;;20.58;53.89;101152.66;677391;28;161067;-65
2022/07/31 01:20:04;;;;;;;952.13;888.42;;;;;;;20.56;53.87;101160.28;676562;28;139326;-65
2022/07/31 01:20:27;;;;;;;942.80;879.50;;;;;;;20.53;54.04;101162.44;680149;28;92172;-65
2022/07/31 01:20:49;;;;;;;952.53;888.92;;;;;;;20.51;53.98;101160.97;684584;28;46412;-65
2022/07/31 01:21:16;;;;;;;943.20;879.85;;;;;;;20.48;54.20;101156.78;682153;28;45230;-66
2022/07/31 01:21:42;;;;;;;959.92;896.05;;;;;;;20.48;54.12;101156.78;681390;28;137922;-66
2022/07/31 01:22:09;;;;;;;961.03;897.08;;;;;;;20.49;54.17;101163.97;679774;28;138174;-67
2022/07/31 01:22:46;;;;;;;951.85;888.25;;;;;;;20.50;54.21;101159.28;679692;28;137860;-66
2022/07/31 01:23:18;;;;;;;931.72;868.70;;;;;;;20.48;54.03;101159.53;680174;28;161197;-66
2022/07/31 01:24:18;;;;;;;942.15;878.85;;;;;;;20.49;54.26;101160.38;681877;28;136769;-66
2022/07/31 01:25:08;;;;;;;953.50;889.85;;;;;;;20.45;53.88;101157.25;684720;28;161443;-66
2022/07/31 01:25:44;;;;;;;975.92;911.03;;;;;;;20.45;54.05;101160.00;687979;28;137388;-66
2022/07/31 01:26:36;;;;;;;956.45;892.50;;;;;;;20.42;54.01;101159.63;685915;28;136108;-66
2022/07/31 01:27:02;;;;;;;963.97;899.60;;;;;;;20.40;54.04;101165.34;684169;28;137316;-67
2022/07/31 01:27:27;;;;;;;949.28;885.47;;;;;;;20.34;54.06;101152.56;684124;28;137606;-66
2022/07/31 01:27:59;;;;;;;970.80;906.40;;;;;;;20.36;54.07;101164.16;685899;28;114026;-67
2022/07/31 01:28:29;;;;;;;958.78;894.75;;;;;;;20.34;54.09;101167.13;680372;28;136113;-66
2022/07/31 01:29:05;;;;;;;964.65;900.55;;;;;;;20.34;54.26;101163.53;680886;28;136055;-66
2022/07/31 01:29:27;;;;;;;950.50;886.83;;;;;;;20.34;54.31;101160.78;684883;28;137701;-66
2022/07/31 01:29:52;;;;;;;938.17;875.00;;;;;;;20.28;54.47;101156.22;684349;28;68353;-67
2022/07/31 01:30:13;;;;;;;938.20;874.88;;;;;;;20.31;54.47;101159.38;685215;28;92134;-67
2022/07/31 01:30:42;;;;;;;949.03;885.42;;;;;;;20.27;54.42;101162.81;688535;28;45069;-66
2022/07/31 01:31:07;;;;;;;952.17;888.40;;;;;;;20.28;54.26;101167.19;687433;28;137722;-66
2022/07/31 01:31:34;;;;;;;954.97;890.97;;;;;;;20.26;54.34;101159.19;685638;28;13412;-66
2022/07/31 01:32:00;;;;;;;936.17;872.88;;;;;;;20.28;54.47;101169.94;686979;28;90409;-67
2022/07/31 01:32:26;;;;;;;943.80;880.30;;;;;;;20.28;54.48;101170.81;686723;28;59349;-67
2022/07/31 01:32:51;;;;;;;943.13;879.72;;;;;;;20.28;54.57;101164.47;682053;28;112741;-67
2022/07/31 01:33:14;;;;;;;937.70;874.50;;;;;;;20.23;54.76;101164.31;682527;28;89946;-67
2022/07/31 01:33:41;;;;;;;953.30;889.47;;;;;;;20.26;54.39;101163.88;682817;28;69418;-67
2022/07/31 01:34:10;;;;;;;959.00;895.13;;;;;;;20.23;54.68;101167.88;683791;28;160898;-67
2022/07/31 01:34:38;;;;;;;943.03;879.63;;;;;;;20.20;54.54;101162.03;681766;28;137670;-66
2022/07/31 01:35:05;;;;;;;947.55;884.08;;;;;;;20.20;54.46;101162.88;681924;28;137540;-66
2022/07/31 01:35:30;;;;;;;942.08;878.72;;;;;;;20.20;54.56;101167.53;684355;28;18580;-66
2022/07/31 01:35:54;;;;;;;931.20;868.28;;;;;;;20.17;54.65;101166.94;678450;29;114007;-66
2022/07/31 01:36:20;;;;;;;956.25;892.45;;;;;;;20.16;54.46;101165.25;677508;29;92319;-66
2022/07/31 01:36:48;;;;;;;948.70;885.20;;;;;;;20.16;54.67;101169.91;677440;29;138092;-67
2022/07/31 01:37:13;;;;;;;968.83;904.55;;;;;;;20.15;54.52;101171.78;678394;28;138221;-66
2022/07/31 01:37:40;;;;;;;968.17;903.97;;;;;;;20.12;54.63;101164.03;676907;29;137668;-66
2022/07/31 01:38:07;;;;;;;971.33;907.03;;;;;;;20.11;55.17;101172.47;679237;28;138619;-66
2022/07/31 01:38:32;;;;;;;978.65;914.05;;;;;;;20.12;54.80;101174.97;681006;28;124407;-66
2022/07/31 01:38:55;;;;;;;971.92;907.47;;;;;;;20.12;54.83;101168.69;677838;28;114268;-66
2022/07/31 01:39:18;;;;;;;967.95;903.78;;;;;;;20.14;54.63;101169.28;678082;28;68967;-67
2022/07/31 01:39:44;;;;;;;965.08;901.08;;;;;;;20.11;54.81;101170.59;678372;28;93089;-65
2022/07/31 01:40:09;;;;;;;967.03;902.88;;;;;;;20.09;54.71;101160.91;679589;28;114982;-65
2022/07/31 01:40:34;;;;;;;968.42;904.13;;;;;;;20.07;54.96;101163.88;677437;28;101399;-66
2022/07/31 01:40:58;;;;;;;973.35;908.80;;;;;;;20.06;54.88;101156.75;675245;29;137882;-66
2022/07/31 01:41:23;;;;;;;963.95;899.75;;;;;;;20.06;54.87;101173.19;682424;28;69417;-65
2022/07/31 01:41:45;;;;;;;969.20;904.78;;;;;;;20.03;55.02;101154.47;678504;28;134799;-66
2022/07/31 01:42:09;;;;;;;947.60;884.08;;;;;;;20.03;55.16;101168.16;678915;28;46271;-66
2022/07/31 01:42:34;;;;;;;939.15;875.85;;;;;;;20.04;54.92;101160.78;679444;29;38635;-66
2022/07/31 01:42:57;;;;;;;942.05;878.67;;;;;;;20.02;55.10;101165.66;680026;28;92403;-66
2022/07/31 01:43:22;;;;;;;932.65;869.53;;;;;;;20.04;55.02;101166.25;677824;28;115073;-66
2022/07/31 01:43:47;;;;;;;933.80;870.75;;;;;;;20.06;54.95;101164.09;677914;28;92045;-66
2022/07/31 01:44:11;;;;;;;941.42;878.03;;;;;;;20.07;54.97;101165.78;675588;28;113545;-66
2022/07/31 01:44:38;;;;;;;945.80;882.25;;;;;;;20.10;55.12;101163.41;679045;28;115073;-66